Weather at UNFICYP OP126 Heliport

Public forecast

Using degrees Celsius for public forecast. Weather courtesy of forecast.io.

Closest aviation weather report (METAR) to UNFICYP OP126 Heliport

Closest report is Larnaca International Airport, 8.9 nm (16.5 km) SSW.

2022/12/04 04:30 (retrieved 34 minutes ago)

LCLK 040430Z 29006KT 9999 FEW025 13/11 Q1020 NOSIG

Closest aviation forecast (TAF) to UNFICYP OP126 Heliport

Forecast is more than 12 hours old.

Closest forecast is Bassel Al-Assad International Airport, 113.5 nm (210.2 km) ENE.

2022/12/02 06:36 (retrieved 2 days ago)

TAF TAF OSLK 020400Z 0206/0306 16012KT 9999 FEW030 TEMPO 0218/0306 06010KT